sensor_id;sensor_type;location;lat;lon;timestamp;pressure;altitude;pressure_sealevel;temperature;humidity
55470;BME280;41334;47.872;16.384;2023-04-26T00:00:53;98674.03;;;7.59;69.59
55470;BME280;41334;47.872;16.384;2023-04-26T00:05:55;98669.34;;;7.60;69.80
55470;BME280;41334;47.872;16.384;2023-04-26T00:10:58;98688.38;;;7.56;70.03
55470;BME280;41334;47.872;16.384;2023-04-26T00:16:02;98688.59;;;7.41;70.85
55470;BME280;41334;47.872;16.384;2023-04-26T00:21:04;98699.50;;;7.27;72.13
55470;BME280;41334;47.872;16.384;2023-04-26T00:26:06;98705.88;;;7.23;72.51
55470;BME280;41334;47.872;16.384;2023-04-26T00:31:16;98710.69;;;7.12;72.84
55470;BME280;41334;47.872;16.384;2023-04-26T00:36:18;98708.38;;;7.00;74.05
55470;BME280;41334;47.872;16.384;2023-04-26T00:41:20;98715.09;;;6.89;73.53
55470;BME280;41334;47.872;16.384;2023-04-26T00:46:23;98721.44;;;6.85;73.68
55470;BME280;41334;47.872;16.384;2023-04-26T00:51:25;98716.69;;;6.71;73.55
55470;BME280;41334;47.872;16.384;2023-04-26T00:56:28;98717.06;;;6.60;74.62
55470;BME280;41334;47.872;16.384;2023-04-26T01:01:31;98722.59;;;6.54;74.51
55470;BME280;41334;47.872;16.384;2023-04-26T01:06:34;98721.41;;;6.37;73.87
55470;BME280;41334;47.872;16.384;2023-04-26T01:11:38;98735.09;;;6.42;75.05
55470;BME280;41334;47.872;16.384;2023-04-26T01:16:40;98727.38;;;6.44;75.21
55470;BME280;41334;47.872;16.384;2023-04-26T01:21:42;98729.41;;;6.33;74.58
55470;BME280;41334;47.872;16.384;2023-04-26T01:26:44;98726.75;;;6.23;75.70
55470;BME280;41334;47.872;16.384;2023-04-26T01:31:48;98722.13;;;6.23;75.97
55470;BME280;41334;47.872;16.384;2023-04-26T01:36:50;98726.75;;;6.23;75.59
55470;BME280;41334;47.872;16.384;2023-04-26T01:41:51;98736.91;;;6.22;74.39
55470;BME280;41334;47.872;16.384;2023-04-26T01:46:53;98735.56;;;6.20;74.20
55470;BME280;41334;47.872;16.384;2023-04-26T01:51:55;98742.94;;;6.24;73.13
55470;BME280;41334;47.872;16.384;2023-04-26T01:56:57;98742.03;;;6.34;71.87
55470;BME280;41334;47.872;16.384;2023-04-26T02:02:01;98742.34;;;6.27;71.29
55470;BME280;41334;47.872;16.384;2023-04-26T02:07:03;98756.09;;;6.22;72.10
55470;BME280;41334;47.872;16.384;2023-04-26T02:12:05;98758.56;;;6.24;72.64
55470;BME280;41334;47.872;16.384;2023-04-26T02:17:07;98754.72;;;6.25;72.33
55470;BME280;41334;47.872;16.384;2023-04-26T02:22:09;98753.41;;;6.17;72.79
55470;BME280;41334;47.872;16.384;2023-04-26T02:27:14;98750.13;;;6.15;71.91
55470;BME280;41334;47.872;16.384;2023-04-26T02:32:16;98740.09;;;6.00;70.82
55470;BME280;41334;47.872;16.384;2023-04-26T02:37:18;98749.44;;;5.99;70.70
55470;BME280;41334;47.872;16.384;2023-04-26T02:42:19;98746.50;;;5.86;71.66
55470;BME280;41334;47.872;16.384;2023-04-26T02:47:21;98745.22;;;5.73;71.47
55470;BME280;41334;47.872;16.384;2023-04-26T02:52:25;98754.06;;;5.65;71.26
55470;BME280;41334;47.872;16.384;2023-04-26T02:57:27;98757.06;;;5.63;71.66
55470;BME280;41334;47.872;16.384;2023-04-26T03:02:29;98772.47;;;5.54;71.80
55470;BME280;41334;47.872;16.384;2023-04-26T03:07:31;98776.03;;;5.55;71.39
55470;BME280;41334;47.872;16.384;2023-04-26T03:12:33;98780.16;;;5.47;70.64
55470;BME280;41334;47.872;16.384;2023-04-26T03:17:36;98781.59;;;5.34;70.30
55470;BME280;41334;47.872;16.384;2023-04-26T03:22:39;98785.44;;;5.38;69.50
55470;BME280;41334;47.872;16.384;2023-04-26T03:27:41;98794.22;;;5.30;69.69
55470;BME280;41334;47.872;16.384;2023-04-26T03:32:44;98801.59;;;5.30;69.74
55470;BME280;41334;47.872;16.384;2023-04-26T03:37:46;98791.78;;;5.23;69.42
55470;BME280;41334;47.872;16.384;2023-04-26T03:42:50;98798.34;;;5.28;68.06
55470;BME280;41334;47.872;16.384;2023-04-26T03:47:52;98799.19;;;5.23;68.15
55470;BME280;41334;47.872;16.384;2023-04-26T03:52:55;98808.22;;;5.23;67.85
55470;BME280;41334;47.872;16.384;2023-04-26T03:57:57;98814.78;;;5.28;67.63
55470;BME280;41334;47.872;16.384;2023-04-26T04:02:59;98815.53;;;5.38;66.51
55470;BME280;41334;47.872;16.384;2023-04-26T04:08:00;98818.00;;;5.89;64.40
55470;BME280;41334;47.872;16.384;2023-04-26T04:13:03;98813.81;;;6.99;60.02
55470;BME280;41334;47.872;16.384;2023-04-26T04:18:05;98832.09;;;7.76;56.62
55470;BME280;41334;47.872;16.384;2023-04-26T04:23:07;98830.22;;;8.65;53.62
55470;BME280;41334;47.872;16.384;2023-04-26T04:28:11;98831.44;;;8.73;52.29
55470;BME280;41334;47.872;16.384;2023-04-26T04:33:14;98831.59;;;7.50;55.66
55470;BME280;41334;47.872;16.384;2023-04-26T04:38:16;98849.38;;;6.80;58.38
55470;BME280;41334;47.872;16.384;2023-04-26T04:43:19;98846.81;;;6.60;58.97
55470;BME280;41334;47.872;16.384;2023-04-26T04:48:22;98857.56;;;6.56;59.36
55470;BME280;41334;47.872;16.384;2023-04-26T04:53:24;98855.06;;;6.60;59.40
55470;BME280;41334;47.872;16.384;2023-04-26T04:58:26;98856.03;;;6.74;58.08
55470;BME280;41334;47.872;16.384;2023-04-26T05:03:28;98880.34;;;6.86;58.14
55470;BME280;41334;47.872;16.384;2023-04-26T05:08:36;98871.81;;;6.93;58.10
55470;BME280;41334;47.872;16.384;2023-04-26T05:13:41;98862.06;;;7.05;58.19
55470;BME280;41334;47.872;16.384;2023-04-26T05:18:43;98877.97;;;7.32;57.62
55470;BME280;41334;47.872;16.384;2023-04-26T05:23:45;98887.31;;;7.55;56.39
55470;BME280;41334;47.872;16.384;2023-04-26T05:28:47;98886.94;;;7.86;55.84
55470;BME280;41334;47.872;16.384;2023-04-26T05:33:55;98894.41;;;8.23;54.90
55470;BME280;41334;47.872;16.384;2023-04-26T05:39:03;98893.28;;;8.81;54.31
55470;BME280;41334;47.872;16.384;2023-04-26T05:44:07;98900.91;;;8.84;53.65
55470;BME280;41334;47.872;16.384;2023-04-26T05:49:09;98903.88;;;9.20;53.06
55470;BME280;41334;47.872;16.384;2023-04-26T05:54:10;98906.03;;;9.23;52.72
55470;BME280;41334;47.872;16.384;2023-04-26T05:59:13;98918.72;;;9.38;52.18
55470;BME280;41334;47.872;16.384;2023-04-26T06:04:15;98914.44;;;9.59;50.48
55470;BME280;41334;47.872;16.384;2023-04-26T06:09:40;98921.38;;;9.98;49.92
55470;BME280;41334;47.872;16.384;2023-04-26T06:14:42;98928.66;;;9.80;48.21
55470;BME280;41334;47.872;16.384;2023-04-26T06:19:49;98925.66;;;10.04;46.52
55470;BME280;41334;47.872;16.384;2023-04-26T06:24:51;98933.63;;;10.19;45.69
55470;BME280;41334;47.872;16.384;2023-04-26T06:29:53;98932.09;;;10.27;45.54
55470;BME280;41334;47.872;16.384;2023-04-26T06:34:56;98947.44;;;9.92;44.89
55470;BME280;41334;47.872;16.384;2023-04-26T06:39:58;98949.97;;;10.16;43.58
55470;BME280;41334;47.872;16.384;2023-04-26T06:45:00;98943.34;;;9.89;44.50
55470;BME280;41334;47.872;16.384;2023-04-26T06:50:03;98941.41;;;10.31;44.38
55470;BME280;41334;47.872;16.384;2023-04-26T06:55:05;98945.13;;;10.49;42.86
55470;BME280;41334;47.872;16.384;2023-04-26T07:00:08;98950.25;;;10.42;43.22
55470;BME280;41334;47.872;16.384;2023-04-26T07:05:10;98949.44;;;11.22;41.11
55470;BME280;41334;47.872;16.384;2023-04-26T07:10:12;98948.97;;;10.39;41.08
55470;BME280;41334;47.872;16.384;2023-04-26T07:15:14;98948.84;;;11.57;41.41
55470;BME280;41334;47.872;16.384;2023-04-26T07:20:16;98951.28;;;11.58;39.87
55470;BME280;41334;47.872;16.384;2023-04-26T07:25:21;98946.06;;;11.57;39.90
55470;BME280;41334;47.872;16.384;2023-04-26T07:30:23;98958.72;;;11.49;39.32
55470;BME280;41334;47.872;16.384;2023-04-26T07:35:24;98969.63;;;11.54;38.76
55470;BME280;41334;47.872;16.384;2023-04-26T07:40:26;98964.16;;;11.09;40.20
55470;BME280;41334;47.872;16.384;2023-04-26T07:45:31;98965.09;;;11.27;40.63
55470;BME280;41334;47.872;16.384;2023-04-26T07:50:33;98981.94;;;11.17;40.05
55470;BME280;41334;47.872;16.384;2023-04-26T07:55:35;98977.94;;;11.54;38.68
55470;BME280;41334;47.872;16.384;2023-04-26T08:00:38;98976.50;;;11.88;37.45
55470;BME280;41334;47.872;16.384;2023-04-26T08:05:40;98985.66;;;11.97;35.75
55470;BME280;41334;47.872;16.384;2023-04-26T08:10:42;98977.94;;;11.54;38.23
55470;BME280;41334;47.872;16.384;2023-04-26T08:15:44;98976.81;;;11.86;36.77
55470;BME280;41334;47.872;16.384;2023-04-26T08:20:46;98970.31;;;12.30;35.52
55470;BME280;41334;47.872;16.384;2023-04-26T08:25:48;98969.91;;;12.89;35.29
55470;BME280;41334;47.872;16.384;2023-04-26T08:30:52;98967.72;;;12.43;36.28
55470;BME280;41334;47.872;16.384;2023-04-26T08:35:54;98969.56;;;13.17;35.83
55470;BME280;41334;47.872;16.384;2023-04-26T08:40:58;98974.72;;;13.61;35.75
55470;BME280;41334;47.872;16.384;2023-04-26T08:46:06;98982.47;;;13.21;35.99
55470;BME280;41334;47.872;16.384;2023-04-26T08:51:11;98980.66;;;13.43;34.17
55470;BME280;41334;47.872;16.384;2023-04-26T08:56:14;98996.66;;;13.28;35.12
55470;BME280;41334;47.872;16.384;2023-04-26T09:01:17;98992.22;;;12.75;35.93
55470;BME280;41334;47.872;16.384;2023-04-26T09:06:21;98993.16;;;11.96;35.65
55470;BME280;41334;47.872;16.384;2023-04-26T09:11:23;98993.81;;;11.71;37.11
55470;BME280;41334;47.872;16.384;2023-04-26T09:16:34;98984.81;;;11.34;37.54
55470;BME280;41334;47.872;16.384;2023-04-26T09:21:43;98987.44;;;11.62;37.86
55470;BME280;41334;47.872;16.384;2023-04-26T09:26:59;98985.00;;;11.38;39.15
55470;BME280;41334;47.872;16.384;2023-04-26T09:32:01;98989.66;;;11.82;38.56
55470;BME280;41334;47.872;16.384;2023-04-26T09:37:04;98982.94;;;12.14;35.85
55470;BME280;41334;47.872;16.384;2023-04-26T09:42:06;98983.06;;;12.00;35.98
55470;BME280;41334;47.872;16.384;2023-04-26T09:47:10;98981.59;;;12.03;35.16
55470;BME280;41334;47.872;16.384;2023-04-26T09:52:12;99000.13;;;10.95;37.35
55470;BME280;41334;47.872;16.384;2023-04-26T09:57:16;98988.88;;;11.59;39.01
55470;BME280;41334;47.872;16.384;2023-04-26T10:02:25;98989.28;;;12.06;37.22
55470;BME280;41334;47.872;16.384;2023-04-26T10:07:29;98990.41;;;12.53;37.09
55470;BME280;41334;47.872;16.384;2023-04-26T10:12:30;98979.03;;;13.33;34.67
55470;BME280;41334;47.872;16.384;2023-04-26T10:17:32;98970.44;;;13.73;34.06
55470;BME280;41334;47.872;16.384;2023-04-26T10:22:39;98964.84;;;14.20;32.77
55470;BME280;41334;47.872;16.384;2023-04-26T10:38:08;98952.69;;;14.03;34.35
55470;BME280;41334;47.872;16.384;2023-04-26T10:53:14;98948.31;;;13.94;34.71
55470;BME280;41334;47.872;16.384;2023-04-26T10:58:30;98952.38;;;13.49;34.72
55470;BME280;41334;47.872;16.384;2023-04-26T11:03:32;98951.88;;;13.47;34.70
55470;BME280;41334;47.872;16.384;2023-04-26T11:08:34;98940.84;;;13.85;34.68
55470;BME280;41334;47.872;16.384;2023-04-26T11:13:41;98949.72;;;13.70;35.13
55470;BME280;41334;47.872;16.384;2023-04-26T11:18:45;98949.81;;;13.35;36.80
55470;BME280;41334;47.872;16.384;2023-04-26T11:23:54;98935.41;;;13.51;38.35
55470;BME280;41334;47.872;16.384;2023-04-26T11:28:56;98938.66;;;13.53;37.94
55470;BME280;41334;47.872;16.384;2023-04-26T11:34:04;98960.91;;;13.01;39.72
55470;BME280;41334;47.872;16.384;2023-04-26T11:39:05;98961.25;;;12.91;39.62
55470;BME280;41334;47.872;16.384;2023-04-26T11:44:10;98976.75;;;13.00;39.18
55470;BME280;41334;47.872;16.384;2023-04-26T11:49:12;98966.94;;;12.77;38.33
55470;BME280;41334;47.872;16.384;2023-04-26T11:54:30;98967.47;;;12.04;40.69
55470;BME280;41334;47.872;16.384;2023-04-26T11:59:32;98986.56;;;12.23;42.29
55470;BME280;41334;47.872;16.384;2023-04-26T12:04:35;98987.81;;;12.74;43.62
55470;BME280;41334;47.872;16.384;2023-04-26T12:09:39;98977.22;;;13.93;39.65
55470;BME280;41334;47.872;16.384;2023-04-26T12:14:45;98955.00;;;14.60;38.07
55470;BME280;41334;47.872;16.384;2023-04-26T12:19:50;98956.97;;;13.92;37.91
55470;BME280;41334;47.872;16.384;2023-04-26T12:25:03;98943.91;;;15.14;36.52
55470;BME280;41334;47.872;16.384;2023-04-26T12:30:06;98945.16;;;15.38;34.00
55470;BME280;41334;47.872;16.384;2023-04-26T12:35:09;98937.75;;;15.09;36.48
55470;BME280;41334;47.872;16.384;2023-04-26T12:40:11;98942.63;;;15.45;34.96
55470;BME280;41334;47.872;16.384;2023-04-26T12:45:13;98949.09;;;14.83;34.39
55470;BME280;41334;47.872;16.384;2023-04-26T12:50:15;98959.03;;;14.04;38.59
55470;BME280;41334;47.872;16.384;2023-04-26T12:55:19;98987.50;;;13.02;43.10
55470;BME280;41334;47.872;16.384;2023-04-26T13:00:21;98974.16;;;11.72;49.43
55470;BME280;41334;47.872;16.384;2023-04-26T13:05:23;98976.34;;;11.93;48.11
55470;BME280;41334;47.872;16.384;2023-04-26T13:10:26;98975.63;;;11.78;49.85
55470;BME280;41334;47.872;16.384;2023-04-26T13:15:28;98974.38;;;10.86;51.21
55470;BME280;41334;47.872;16.384;2023-04-26T13:20:30;98973.91;;;12.40;46.76
55470;BME280;41334;47.872;16.384;2023-04-26T13:25:32;98955.22;;;12.63;44.48
55470;BME280;41334;47.872;16.384;2023-04-26T13:30:34;98958.31;;;12.70;44.89
55470;BME280;41334;47.872;16.384;2023-04-26T13:35:36;98952.06;;;12.38;43.14
55470;BME280;41334;47.872;16.384;2023-04-26T13:40:38;98945.53;;;13.47;42.43
55470;BME280;41334;47.872;16.384;2023-04-26T13:45:39;98953.81;;;13.64;41.97
55470;BME280;41334;47.872;16.384;2023-04-26T13:50:41;98943.44;;;13.91;41.00
55470;BME280;41334;47.872;16.384;2023-04-26T13:55:43;98954.75;;;13.77;41.35
55470;BME280;41334;47.872;16.384;2023-04-26T14:00:45;98957.59;;;13.51;41.56
55470;BME280;41334;47.872;16.384;2023-04-26T14:05:47;98948.03;;;13.22;42.29
55470;BME280;41334;47.872;16.384;2023-04-26T14:10:48;98947.66;;;13.50;40.07
55470;BME280;41334;47.872;16.384;2023-04-26T14:15:51;98957.16;;;13.05;40.26
55470;BME280;41334;47.872;16.384;2023-04-26T14:20:53;98949.50;;;12.68;40.20
55470;BME280;41334;47.872;16.384;2023-04-26T14:25:54;98951.09;;;12.25;42.16
55470;BME280;41334;47.872;16.384;2023-04-26T14:30:56;98951.59;;;13.14;41.59
55470;BME280;41334;47.872;16.384;2023-04-26T14:35:58;98938.06;;;13.04;39.84
55470;BME280;41334;47.872;16.384;2023-04-26T14:41:00;98926.44;;;13.54;39.12
55470;BME280;41334;47.872;16.384;2023-04-26T14:46:02;98915.97;;;14.90;36.67
55470;BME280;41334;47.872;16.384;2023-04-26T14:51:04;98912.72;;;13.96;37.51
55470;BME280;41334;47.872;16.384;2023-04-26T14:56:06;98906.97;;;14.93;35.90
55470;BME280;41334;47.872;16.384;2023-04-26T15:01:08;98913.63;;;14.80;34.77
55470;BME280;41334;47.872;16.384;2023-04-26T15:06:11;98912.41;;;14.48;35.35
55470;BME280;41334;47.872;16.384;2023-04-26T15:11:12;98913.22;;;14.19;34.95
55470;BME280;41334;47.872;16.384;2023-04-26T15:36:36;98927.34;;;12.76;38.89
55470;BME280;41334;47.872;16.384;2023-04-26T15:41:37;98926.38;;;12.90;38.35
55470;BME280;41334;47.872;16.384;2023-04-26T15:46:40;98939.38;;;13.06;37.60
55470;BME280;41334;47.872;16.384;2023-04-26T15:51:42;98926.69;;;13.05;38.33
55470;BME280;41334;47.872;16.384;2023-04-26T15:56:44;98930.09;;;13.02;36.90
55470;BME280;41334;47.872;16.384;2023-04-26T16:01:49;98932.41;;;12.57;37.36
55470;BME280;41334;47.872;16.384;2023-04-26T16:06:50;98936.63;;;12.54;38.72
55470;BME280;41334;47.872;16.384;2023-04-26T16:11:52;98932.50;;;12.35;38.09
55470;BME280;41334;47.872;16.384;2023-04-26T16:16:54;98933.66;;;12.51;38.42
55470;BME280;41334;47.872;16.384;2023-04-26T16:21:56;98938.41;;;12.50;38.89
55470;BME280;41334;47.872;16.384;2023-04-26T16:26:58;98928.13;;;12.42;39.58
55470;BME280;41334;47.872;16.384;2023-04-26T16:32:00;98924.91;;;11.92;39.77
55470;BME280;41334;47.872;16.384;2023-04-26T16:37:02;98916.47;;;11.88;40.28
55470;BME280;41334;47.872;16.384;2023-04-26T16:42:04;98927.00;;;11.86;40.67
55470;BME280;41334;47.872;16.384;2023-04-26T16:47:05;98923.44;;;11.86;41.31
55470;BME280;41334;47.872;16.384;2023-04-26T16:52:07;98936.31;;;11.59;41.38
55470;BME280;41334;47.872;16.384;2023-04-26T16:57:09;98944.00;;;11.62;41.09
55470;BME280;41334;47.872;16.384;2023-04-26T17:02:12;98941.75;;;11.42;40.43
55470;BME280;41334;47.872;16.384;2023-04-26T17:07:14;98941.25;;;11.71;39.90
55470;BME280;41334;47.872;16.384;2023-04-26T17:12:16;98942.34;;;11.92;40.05
55470;BME280;41334;47.872;16.384;2023-04-26T17:17:18;98942.72;;;11.77;40.66
55470;BME280;41334;47.872;16.384;2023-04-26T17:22:20;98951.91;;;11.55;41.76
55470;BME280;41334;47.872;16.384;2023-04-26T17:27:22;98955.38;;;11.30;41.49
55470;BME280;41334;47.872;16.384;2023-04-26T17:32:25;98967.53;;;11.06;42.74
55470;BME280;41334;47.872;16.384;2023-04-26T17:37:27;98965.16;;;10.91;42.09
55470;BME280;41334;47.872;16.384;2023-04-26T17:42:32;98966.81;;;10.56;42.74
55470;BME280;41334;47.872;16.384;2023-04-26T17:47:34;98975.53;;;10.35;43.48
55470;BME280;41334;47.872;16.384;2023-04-26T17:52:36;98984.63;;;9.94;47.15
55470;BME280;41334;47.872;16.384;2023-04-26T17:57:38;98995.31;;;9.68;47.88
55470;BME280;41334;47.872;16.384;2023-04-26T18:02:40;98994.28;;;9.51;48.20
55470;BME280;41334;47.872;16.384;2023-04-26T18:07:45;98998.97;;;9.50;48.02
55470;BME280;41334;47.872;16.384;2023-04-26T18:12:47;99008.56;;;9.53;48.28
55470;BME280;41334;47.872;16.384;2023-04-26T18:17:49;99021.19;;;9.40;48.29
55470;BME280;41334;47.872;16.384;2023-04-26T18:22:51;99026.97;;;9.25;48.67
55470;BME280;41334;47.872;16.384;2023-04-26T18:27:54;99045.22;;;9.21;47.57
55470;BME280;41334;47.872;16.384;2023-04-26T18:32:56;99046.56;;;9.23;47.96
55470;BME280;41334;47.872;16.384;2023-04-26T18:37:57;99049.41;;;9.18;48.60
55470;BME280;41334;47.872;16.384;2023-04-26T18:42:59;99056.78;;;9.23;49.93
55470;BME280;41334;47.872;16.384;2023-04-26T18:48:01;99068.81;;;9.27;49.00
55470;BME280;41334;47.872;16.384;2023-04-26T18:53:03;99067.78;;;9.23;49.07
55470;BME280;41334;47.872;16.384;2023-04-26T18:58:05;99077.03;;;9.13;48.95
55470;BME280;41334;47.872;16.384;2023-04-26T19:03:07;99085.13;;;9.04;49.35
55470;BME280;41334;47.872;16.384;2023-04-26T19:08:09;99088.66;;;8.91;49.71
55470;BME280;41334;47.872;16.384;2023-04-26T19:13:11;99089.09;;;8.79;49.47
55470;BME280;41334;47.872;16.384;2023-04-26T19:18:12;99091.09;;;8.74;49.43
55470;BME280;41334;47.872;16.384;2023-04-26T19:23:14;99094.28;;;8.81;49.69
55470;BME280;41334;47.872;16.384;2023-04-26T19:28:19;99098.84;;;8.90;49.36
55470;BME280;41334;47.872;16.384;2023-04-26T19:33:21;99100.16;;;8.93;49.34
55470;BME280;41334;47.872;16.384;2023-04-26T19:38:23;99102.94;;;8.93;49.11
55470;BME280;41334;47.872;16.384;2023-04-26T19:43:25;99098.91;;;8.85;49.37
55470;BME280;41334;47.872;16.384;2023-04-26T19:48:27;99112.69;;;8.85;48.62
55470;BME280;41334;47.872;16.384;2023-04-26T19:53:29;99115.56;;;8.75;48.46
55470;BME280;41334;47.872;16.384;2023-04-26T19:58:30;99114.88;;;8.64;49.13
55470;BME280;41334;47.872;16.384;2023-04-26T20:03:32;99111.13;;;8.55;49.79
55470;BME280;41334;47.872;16.384;2023-04-26T20:08:35;99114.66;;;8.37;50.73
55470;BME280;41334;47.872;16.384;2023-04-26T20:13:36;99120.28;;;8.22;52.16
55470;BME280;41334;47.872;16.384;2023-04-26T20:18:38;99116.59;;;8.07;52.28
55470;BME280;41334;47.872;16.384;2023-04-26T20:23:40;99123.00;;;7.98;52.16
55470;BME280;41334;47.872;16.384;2023-04-26T20:28:43;99118.81;;;8.05;51.35
55470;BME280;41334;47.872;16.384;2023-04-26T20:33:46;99137.47;;;8.08;51.25
55470;BME280;41334;47.872;16.384;2023-04-26T20:38:47;99138.50;;;8.18;51.16
55470;BME280;41334;47.872;16.384;2023-04-26T20:43:49;99149.75;;;8.21;50.63
55470;BME280;41334;47.872;16.384;2023-04-26T20:48:54;99137.97;;;8.16;50.51
55470;BME280;41334;47.872;16.384;2023-04-26T20:53:56;99149.59;;;8.07;51.43
55470;BME280;41334;47.872;16.384;2023-04-26T20:58:58;99156.69;;;8.13;52.12
55470;BME280;41334;47.872;16.384;2023-04-26T21:04:00;99153.06;;;8.18;51.91
55470;BME280;41334;47.872;16.384;2023-04-26T21:09:02;99153.75;;;8.05;51.46
55470;BME280;41334;47.872;16.384;2023-04-26T21:14:05;99168.38;;;8.00;52.34
55470;BME280;41334;47.872;16.384;2023-04-26T21:19:07;99169.38;;;8.09;52.15
55470;BME280;41334;47.872;16.384;2023-04-26T21:24:10;99175.94;;;8.13;52.42
55470;BME280;41334;47.872;16.384;2023-04-26T21:29:12;99178.94;;;8.17;51.73
55470;BME280;41334;47.872;16.384;2023-04-26T21:34:14;99181.47;;;8.08;51.95
55470;BME280;41334;47.872;16.384;2023-04-26T21:39:16;99185.44;;;7.97;51.86
55470;BME280;41334;47.872;16.384;2023-04-26T21:44:18;99183.19;;;8.04;51.99
55470;BME280;41334;47.872;16.384;2023-04-26T21:49:20;99191.97;;;8.06;51.85
55470;BME280;41334;47.872;16.384;2023-04-26T21:54:22;99195.81;;;8.05;51.75
55470;BME280;41334;47.872;16.384;2023-04-26T21:59:27;99204.66;;;8.02;51.70
55470;BME280;41334;47.872;16.384;2023-04-26T22:04:29;99210.72;;;7.99;52.37
55470;BME280;41334;47.872;16.384;2023-04-26T22:09:31;99211.00;;;7.98;51.60
55470;BME280;41334;47.872;16.384;2023-04-26T22:14:33;99224.75;;;7.98;52.39
55470;BME280;41334;47.872;16.384;2023-04-26T22:19:35;99229.72;;;7.96;52.32
55470;BME280;41334;47.872;16.384;2023-04-26T22:24:37;99234.72;;;7.94;52.26
55470;BME280;41334;47.872;16.384;2023-04-26T22:29:38;99240.47;;;7.92;53.24
55470;BME280;41334;47.872;16.384;2023-04-26T22:34:40;99245.75;;;7.88;53.66
55470;BME280;41334;47.872;16.384;2023-04-26T22:39:44;99250.72;;;7.81;54.07
55470;BME280;41334;47.872;16.384;2023-04-26T22:44:50;99249.09;;;7.80;56.94
55470;BME280;41334;47.872;16.384;2023-04-26T22:49:51;99263.16;;;7.74;58.41
55470;BME280;41334;47.872;16.384;2023-04-26T22:54:53;99251.09;;;7.70;58.49
55470;BME280;41334;47.872;16.384;2023-04-26T22:59:55;99245.09;;;7.63;59.49
55470;BME280;41334;47.872;16.384;2023-04-26T23:04:57;99258.31;;;7.55;59.44
55470;BME280;41334;47.872;16.384;2023-04-26T23:09:59;99253.41;;;7.52;59.15
55470;BME280;41334;47.872;16.384;2023-04-26T23:15:01;99266.28;;;7.57;59.26
55470;BME280;41334;47.872;16.384;2023-04-26T23:20:08;99273.13;;;7.59;59.24
55470;BME280;41334;47.872;16.384;2023-04-26T23:25:13;99274.53;;;7.57;58.85
55470;BME280;41334;47.872;16.384;2023-04-26T23:30:15;99269.84;;;7.57;59.99
55470;BME280;41334;47.872;16.384;2023-04-26T23:35:17;99275.63;;;7.56;60.54
55470;BME280;41334;47.872;16.384;2023-04-26T23:40:19;99280.28;;;7.55;60.12
55470;BME280;41334;47.872;16.384;2023-04-26T23:45:21;99270.72;;;7.53;60.09
55470;BME280;41334;47.872;16.384;2023-04-26T23:50:24;99271.53;;;7.53;58.99
55470;BME280;41334;47.872;16.384;2023-04-26T23:55:26;99273.44;;;7.53;61.04
